Airfield :
LOGIN :

Register | Disclaimer

   EN    FR    IT 

 










Legend :    VFR   Marginal VFR   IFR   Intensive IFR   Very Intensive IFR
Visi :
Ceiling :
>= 8 km
>= 3000ft
5 to 8 km
1000 to 3000 ft
1500m to 5 km
500 to 1000 ft
800 to 1500m
200 to 500 ft
< 800m
< 200 ft
Symbols :   Thunderstorms  Fog  Heavy snow  Heavy precipitations  Wind > 20 kt
SIGMETs :     Misc.  Thunderstorms  Icing  Turbulence  Mountain Waves  Volcanic Ashes






- Airport Elevation : 179 ft
- IATA code : HEL


EFHK - Helsinki Vantaa

CURRENT METAR :
  • 090650Z 30012KT 9999 FEW025 06/M01 Q1005 NOSIG

EXPIRED METARs :
  • 090620Z 30016KT 9999 FEW025 06/00 Q1005 NOSIG
  • 090550Z 29013KT 9999 FEW020 05/01 Q1004 NOSIG
  • 090520Z 28008KT 9999 -RA FEW045CB 05/02 Q1004 BECMG BKN045
  • 090450Z 28007KT 9999 -RA NSC 05/02 Q1004 NOSIG
  • 090420Z 27008KT 9999 -RA NSC 06/02 Q1004 NOSIG

TAF TAF EFHK
Valid from the 09 at 06:00 until the 10 at 06:00 UTC


090526Z 0906/1006 30012KT 9999 FEW045CB
BECMG 0906/0907 FEW045
TEMPO 0910/0916 FEW040CB
TEMPO 1003/1006 4000 -SHSN BKN013 SCT020CB



MET'MAP, your aeronautical weather chart ! - Copyright ORBIFLY December 2007 - Disclaimer

ORBIFLY MET'MAP TEAM :

Programming & Development : Alexandra Zaïnal
Concept & original design : Baudouin d'Aumeries
Assistance for programming : Marc-Olivier Méhu
Technical & hardware support : Manuel Goepfert

Contact : metmap@orbifly.com




SOURCES & CREDITS :

   NOAA